Terminal Aerodrome Forecast
Issued by NWS Charleston, WV

Current Version | Previous Version | Graphics & Text | Print | Product List | Glossary On
Versions: 1 2 3 4 5 6 7 8 9 10 11 12 13 14 15 16 17 18 19 20 21 22 23
000
FTUS41 KRLX 240900 AAA
TAFEKN
TAF AMD
KEKN 240911Z 2409/2506 VRB03KT 3SM -RASN BR BKN005 OVC015
     FM241000 30007KT 3SM -SN BKN005 OVC015
      TEMPO 2410/2412 2SM -SN BR OVC005
     FM241400 29007KT P6SM OVC020
     FM241800 27010G17KT P6SM BKN035
     FM250500 28009KT 3SM -SHSN BR OVC015=

USA.gov is the U.S. government's official web portal to all federal, state and local government web resources and services.